createdAt,value
2022-11-25T00:01:33.112Z,9.60
2022-11-25T00:04:01.202Z,9.60
2022-11-25T00:06:34.252Z,9.60
2022-11-25T00:09:08.196Z,9.50
2022-11-25T00:11:37.428Z,9.50
2022-11-25T00:14:05.474Z,9.50
2022-11-25T00:16:32.515Z,9.50
2022-11-25T00:18:59.707Z,9.50
2022-11-25T00:21:31.844Z,9.50
2022-11-25T00:24:02.321Z,9.50
2022-11-25T00:26:32.735Z,9.50
2022-11-25T00:29:02.581Z,9.50
2022-11-25T00:31:33.712Z,9.50
2022-11-25T00:34:00.745Z,9.40
2022-11-25T00:36:36.404Z,9.40
2022-11-25T00:39:08.198Z,9.40
2022-11-25T00:41:54.004Z,9.50
2022-11-25T00:44:38.044Z,9.40
2022-11-25T00:47:15.312Z,9.40
2022-11-25T00:49:46.042Z,9.40
2022-11-25T00:52:37.039Z,9.40
2022-11-25T00:55:05.308Z,9.40
2022-11-25T00:57:32.230Z,9.40
2022-11-25T00:59:59.148Z,9.40
2022-11-25T01:02:26.265Z,9.40
2022-11-25T01:04:53.284Z,9.30
2022-11-25T01:07:20.252Z,9.40
2022-11-25T01:09:49.250Z,9.40
2022-11-25T01:12:16.242Z,9.40
2022-11-25T01:14:43.321Z,9.30
2022-11-25T01:17:10.245Z,9.30
2022-11-25T01:19:40.512Z,9.20
2022-11-25T01:22:09.511Z,9.20
2022-11-25T01:24:36.692Z,9.20
2022-11-25T01:27:03.862Z,9.20
2022-11-25T01:29:30.827Z,9.20
2022-11-25T01:31:57.914Z,9.20
2022-11-25T01:34:27.226Z,9.20
2022-11-25T01:36:54.146Z,9.30
2022-11-25T01:39:28.670Z,9.30
2022-11-25T01:41:58.979Z,9.20
2022-11-25T01:44:31.698Z,9.20
2022-11-25T01:47:16.935Z,9.30
2022-11-25T01:50:11.140Z,9.20
2022-11-25T01:52:46.544Z,9.20
2022-11-25T01:55:20.518Z,9.20
2022-11-25T01:57:54.094Z,9.10
2022-11-25T02:00:21.905Z,9.00
2022-11-25T02:02:52.214Z,9.00
2022-11-25T02:05:32.375Z,9.00
2022-11-25T02:08:01.088Z,8.90
2022-11-25T02:10:32.291Z,8.90
2022-11-25T02:13:00.417Z,8.90
2022-11-25T02:15:29.484Z,8.90
2022-11-25T02:17:56.715Z,8.90
2022-11-25T02:20:25.031Z,8.90
2022-11-25T02:23:07.110Z,8.90
2022-11-25T02:25:40.442Z,8.80
2022-11-25T02:28:13.769Z,8.80
2022-11-25T02:30:41.162Z,8.80
2022-11-25T02:33:08.494Z,8.80
2022-11-25T02:35:41.641Z,8.80
2022-11-25T02:38:15.452Z,8.80
2022-11-25T02:41:02.984Z,8.90
2022-11-25T02:43:29.953Z,8.90
2022-11-25T02:46:10.693Z,8.90
2022-11-25T02:49:07.424Z,9.00
2022-11-25T02:51:31.701Z,9.00
2022-11-25T02:53:59.551Z,9.10
2022-11-25T02:56:31.633Z,9.20
2022-11-25T02:58:59.094Z,9.20
2022-11-25T03:01:26.433Z,9.20
2022-11-25T03:03:53.430Z,9.20
2022-11-25T03:06:20.440Z,9.30
2022-11-25T03:08:47.497Z,9.30
2022-11-25T03:11:14.736Z,9.30
2022-11-25T03:13:42.036Z,9.30
2022-11-25T03:16:09.207Z,9.40
2022-11-25T03:18:36.656Z,9.40
2022-11-25T03:21:03.882Z,9.40
2022-11-25T03:23:30.930Z,9.40
2022-11-25T03:25:58.037Z,9.40
2022-11-25T03:28:24.966Z,9.40
2022-11-25T03:30:52.138Z,9.40
2022-11-25T03:33:19.162Z,9.40
2022-11-25T03:35:48.248Z,9.40
2022-11-25T03:38:15.211Z,9.40
2022-11-25T03:40:42.586Z,9.40
2022-11-25T03:43:09.500Z,9.40
2022-11-25T03:45:36.439Z,9.40
2022-11-25T03:48:03.581Z,9.40
2022-11-25T03:50:30.614Z,9.40
2022-11-25T03:52:57.570Z,9.40
2022-11-25T03:55:24.502Z,9.40
2022-11-25T03:57:51.419Z,9.40
2022-11-25T04:00:18.543Z,9.30
2022-11-25T04:02:45.768Z,9.20
2022-11-25T04:05:12.794Z,9.20
2022-11-25T04:07:39.769Z,9.30
2022-11-25T04:10:07.905Z,9.20
2022-11-25T04:12:46.735Z,9.20
2022-11-25T04:15:16.094Z,9.10
2022-11-25T04:17:43.093Z,9.10
2022-11-25T04:20:12.469Z,9.00
2022-11-25T04:22:39.963Z,9.00
2022-11-25T04:25:09.485Z,8.90
2022-11-25T04:27:38.393Z,8.90
2022-11-25T04:30:06.912Z,8.90
2022-11-25T04:32:33.950Z,8.90
2022-11-25T04:35:00.938Z,9.00
2022-11-25T04:37:28.006Z,9.00
2022-11-25T04:39:54.980Z,9.00
2022-11-25T04:42:34.792Z,9.10
2022-11-25T04:45:24.741Z,9.10
2022-11-25T04:47:52.664Z,9.10
2022-11-25T04:50:23.020Z,9.10
2022-11-25T04:52:50.277Z,9.00
2022-11-25T04:55:17.303Z,9.00
2022-11-25T04:57:44.296Z,8.90
2022-11-25T05:00:15.002Z,8.80
2022-11-25T05:02:42.202Z,8.70
2022-11-25T05:05:09.345Z,8.70
2022-11-25T05:07:36.418Z,8.70
2022-11-25T05:10:03.736Z,8.60
2022-11-25T05:12:31.049Z,8.50
2022-11-25T05:14:58.331Z,8.50
2022-11-25T05:17:30.812Z,8.50
2022-11-25T05:19:57.909Z,8.40
2022-11-25T05:22:30.592Z,8.40
2022-11-25T05:24:58.412Z,8.30
2022-11-25T05:27:26.947Z,8.20
2022-11-25T05:29:56.281Z,8.10
2022-11-25T05:32:23.603Z,8.10
2022-11-25T05:34:50.517Z,8.00
2022-11-25T05:37:21.257Z,8.00
2022-11-25T05:39:51.514Z,7.90
2022-11-25T05:42:18.748Z,7.90
2022-11-25T05:44:45.671Z,7.90
2022-11-25T05:47:12.564Z,7.80
2022-11-25T05:49:39.560Z,7.80
2022-11-25T05:52:06.459Z,7.80
2022-11-25T05:54:33.524Z,7.80
2022-11-25T05:57:00.573Z,7.80
2022-11-25T05:59:27.474Z,7.80
2022-11-25T06:01:54.708Z,7.80
2022-11-25T06:04:21.641Z,7.80
2022-11-25T06:06:48.718Z,7.90
2022-11-25T06:09:15.625Z,8.00
2022-11-25T06:11:42.528Z,8.00
2022-11-25T06:14:09.817Z,8.10
2022-11-25T06:16:36.774Z,8.10
2022-11-25T06:19:07.480Z,8.10
2022-11-25T06:21:34.407Z,8.10
2022-11-25T06:24:01.558Z,8.10
2022-11-25T06:26:28.686Z,8.10
2022-11-25T06:28:56.828Z,8.00
2022-11-25T06:31:27.584Z,8.10
2022-11-25T06:33:55.013Z,8.10
2022-11-25T06:36:23.009Z,8.00
2022-11-25T06:38:53.472Z,8.00
2022-11-25T06:41:22.342Z,8.00
2022-11-25T06:43:49.591Z,8.00
2022-11-25T06:46:24.351Z,8.00
2022-11-25T06:48:53.838Z,8.00
2022-11-25T06:51:20.930Z,8.00
2022-11-25T06:53:48.413Z,8.00
2022-11-25T06:56:27.484Z,7.90
2022-11-25T06:58:55.834Z,7.90
2022-11-25T07:01:28.956Z,7.90
2022-11-25T07:04:04.237Z,7.90
2022-11-25T07:06:33.394Z,8.00
2022-11-25T07:09:01.326Z,8.00
2022-11-25T07:11:38.393Z,8.10
2022-11-25T07:14:10.751Z,8.20
2022-11-25T07:16:41.246Z,8.20
2022-11-25T07:19:13.587Z,8.30
2022-11-25T07:21:41.530Z,8.30
2022-11-25T07:24:09.778Z,8.40
2022-11-25T07:26:38.409Z,8.50
2022-11-25T07:29:23.495Z,8.50
2022-11-25T07:31:56.156Z,8.60
2022-11-25T07:34:26.118Z,8.60
2022-11-25T07:36:53.263Z,8.50
2022-11-25T07:39:22.715Z,8.60
2022-11-25T07:41:52.080Z,8.50
2022-11-25T07:44:20.026Z,8.50
2022-11-25T07:46:49.298Z,8.50
2022-11-25T07:49:22.434Z,8.50
2022-11-25T07:51:59.779Z,8.50
2022-11-25T07:54:27.168Z,8.60
2022-11-25T07:56:54.118Z,8.60
2022-11-25T07:59:22.724Z,8.60
2022-11-25T08:01:54.969Z,8.70
2022-11-25T08:04:22.959Z,8.70
2022-11-25T08:06:52.582Z,8.70
2022-11-25T08:09:23.893Z,8.70
2022-11-25T08:11:52.055Z,8.70
2022-11-25T08:14:19.674Z,8.70
2022-11-25T08:16:46.687Z,8.70
2022-11-25T08:19:16.682Z,8.70
2022-11-25T08:21:43.684Z,8.70
2022-11-25T08:24:19.945Z,8.70
2022-11-25T08:26:47.863Z,8.70
2022-11-25T08:29:16.772Z,8.70
2022-11-25T08:31:44.131Z,8.70
2022-11-25T08:34:20.072Z,8.60
2022-11-25T08:36:48.723Z,8.60
2022-11-25T08:39:44.071Z,8.60
2022-11-25T08:42:05.886Z,8.60
2022-11-25T08:44:32.827Z,8.60
2022-11-25T08:46:59.948Z,8.60
2022-11-25T08:49:29.265Z,8.60
2022-11-25T08:51:56.285Z,8.60
2022-11-25T08:54:23.214Z,8.60
2022-11-25T08:56:50.122Z,8.60
2022-11-25T08:59:17.016Z,8.80
2022-11-25T09:01:44.260Z,9.40
2022-11-25T09:04:11.465Z,9.80
2022-11-25T09:06:39.240Z,9.90
2022-11-25T09:09:06.818Z,10.10
2022-11-25T09:11:33.872Z,10.10
2022-11-25T09:14:00.925Z,10.00
2022-11-25T09:16:28.475Z,9.80
2022-11-25T09:18:56.295Z,9.80
2022-11-25T09:21:25.051Z,9.90
2022-11-25T09:23:54.047Z,10.10
2022-11-25T09:26:31.100Z,10.30
2022-11-25T09:28:58.535Z,10.40
2022-11-25T09:31:25.563Z,10.50
2022-11-25T09:33:52.773Z,10.50
2022-11-25T09:36:21.034Z,10.60
2022-11-25T09:38:48.276Z,10.60
2022-11-25T09:42:12.915Z,10.60
2022-11-25T09:45:44.323Z,10.70
2022-11-25T09:48:49.948Z,10.70
2022-11-25T09:52:01.463Z,10.90
2022-11-25T09:55:12.878Z,10.90
2022-11-25T09:58:27.876Z,10.90
2022-11-25T10:00:54.815Z,10.90
2022-11-25T10:03:41.598Z,10.90
2022-11-25T10:06:31.371Z,10.80
2022-11-25T10:09:04.898Z,10.90
2022-11-25T10:12:01.233Z,10.90
2022-11-25T10:14:45.364Z,11.00
2022-11-25T10:17:50.165Z,11.00
2022-11-25T10:20:37.530Z,11.00
2022-11-25T10:23:32.880Z,11.00
2022-11-25T10:26:13.010Z,10.90
2022-11-25T10:28:52.047Z,10.90
2022-11-25T10:31:29.116Z,10.90
2022-11-25T10:33:59.465Z,10.90
2022-11-25T10:36:38.806Z,10.90
2022-11-25T10:39:15.060Z,10.80
2022-11-25T10:42:10.081Z,10.90
2022-11-25T10:44:40.882Z,10.90
2022-11-25T10:47:53.802Z,10.90
2022-11-25T10:50:33.864Z,11.00
2022-11-25T10:53:12.219Z,11.10
2022-11-25T10:55:39.437Z,11.20
2022-11-25T10:58:31.083Z,11.40
2022-11-25T11:01:17.002Z,11.50
2022-11-25T11:03:55.109Z,11.60
2022-11-25T11:06:51.423Z,11.60
2022-11-25T11:09:40.980Z,11.80
2022-11-25T11:12:20.654Z,11.80
2022-11-25T11:14:48.285Z,11.90
2022-11-25T11:17:34.817Z,11.90
2022-11-25T11:20:25.664Z,12.00
2022-11-25T11:23:08.364Z,12.10
2022-11-25T11:25:41.655Z,12.20
2022-11-25T11:28:36.988Z,12.20
2022-11-25T11:31:23.077Z,12.30
2022-11-25T11:34:01.356Z,12.30
2022-11-25T11:36:55.960Z,12.40
2022-11-25T11:39:35.308Z,12.40
2022-11-25T11:42:18.856Z,12.40
2022-11-25T11:45:25.644Z,12.50
2022-11-25T11:48:13.438Z,12.60
2022-11-25T11:50:55.973Z,12.70
2022-11-25T11:53:38.482Z,12.80
2022-11-25T11:56:38.850Z,12.90
2022-11-25T11:59:46.985Z,12.90
2022-11-25T12:02:37.712Z,13.00
2022-11-25T12:05:10.623Z,12.90
2022-11-25T12:08:13.577Z,12.90
2022-11-25T12:11:01.996Z,13.00
2022-11-25T12:13:46.695Z,13.10
2022-11-25T12:16:17.487Z,13.10
2022-11-25T12:19:22.452Z,13.00
2022-11-25T12:22:21.660Z,13.20
2022-11-25T12:25:08.812Z,13.30
2022-11-25T12:27:44.494Z,13.50
2022-11-25T12:30:21.211Z,13.50
2022-11-25T12:33:15.037Z,13.70
2022-11-25T12:36:06.363Z,13.90
2022-11-25T12:38:41.955Z,13.90
2022-11-25T12:41:42.488Z,14.00
2022-11-25T12:44:19.662Z,13.90
2022-11-25T12:46:52.307Z,13.80
2022-11-25T12:49:26.733Z,13.60
2022-11-25T12:52:35.632Z,13.50
2022-11-25T12:55:21.405Z,13.40
2022-11-25T12:58:28.053Z,13.30
2022-11-25T13:01:26.089Z,13.10
2022-11-25T13:04:19.867Z,13.00
2022-11-25T13:07:27.510Z,12.90
2022-11-25T13:10:37.054Z,12.90
2022-11-25T13:13:44.214Z,12.80
2022-11-25T13:16:12.041Z,12.70
2022-11-25T13:18:43.239Z,12.60
2022-11-25T13:21:13.283Z,12.50
2022-11-25T13:23:49.491Z,12.40
2022-11-25T13:26:28.949Z,12.30
2022-11-25T13:28:57.135Z,12.30
2022-11-25T13:31:35.543Z,12.40
2022-11-25T13:34:32.978Z,12.40
2022-11-25T13:37:02.776Z,12.30
2022-11-25T13:39:33.844Z,12.30
2022-11-25T13:42:22.415Z,12.30
2022-11-25T13:44:53.785Z,12.40
2022-11-25T13:47:38.833Z,12.50
2022-11-25T13:50:22.231Z,12.50
2022-11-25T13:53:06.542Z,12.50
2022-11-25T13:55:39.118Z,12.40
2022-11-25T13:58:26.859Z,12.40
2022-11-25T14:01:29.448Z,12.40
2022-11-25T14:04:00.296Z,12.50
2022-11-25T14:06:36.523Z,12.60
2022-11-25T14:09:22.337Z,12.60
2022-11-25T14:12:13.919Z,12.60
2022-11-25T14:15:33.282Z,12.70
2022-11-25T14:22:20.263Z,12.70
2022-11-25T14:24:50.916Z,12.80
2022-11-25T14:27:28.618Z,12.90
2022-11-25T14:30:10.833Z,12.90
2022-11-25T14:32:58.418Z,12.80
2022-11-25T14:35:45.736Z,12.70
2022-11-25T14:38:44.788Z,12.60
2022-11-25T14:41:19.962Z,12.50
2022-11-25T14:44:15.292Z,12.50
2022-11-25T14:46:59.160Z,12.50
2022-11-25T14:50:05.269Z,12.40
2022-11-25T14:52:36.947Z,12.30
2022-11-25T14:55:06.396Z,12.30
2022-11-25T14:57:37.847Z,12.20
2022-11-25T15:00:10.188Z,12.20
2022-11-25T15:02:42.441Z,12.10
2022-11-25T15:05:16.407Z,12.00
2022-11-25T15:07:56.610Z,11.90
2022-11-25T15:10:39.830Z,11.80
2022-11-25T15:13:38.936Z,11.60
2022-11-25T15:16:17.853Z,11.50
2022-11-25T15:18:57.058Z,11.40
2022-11-25T15:21:31.894Z,11.20
2022-11-25T15:23:59.521Z,11.10
2022-11-25T15:26:30.672Z,11.00
2022-11-25T15:29:13.919Z,10.90
2022-11-25T15:31:42.103Z,10.80
2022-11-25T15:34:13.566Z,10.70
2022-11-25T15:36:40.830Z,10.60
2022-11-25T15:39:19.645Z,10.50
2022-11-25T15:41:57.768Z,10.50
2022-11-25T15:44:29.171Z,10.40
2022-11-25T15:47:22.640Z,10.30
2022-11-25T15:50:01.307Z,10.20
2022-11-25T15:52:33.330Z,10.20
2022-11-25T15:55:20.691Z,10.10
2022-11-25T15:57:51.712Z,10.00
2022-11-25T16:00:23.219Z,10.00
2022-11-25T16:02:53.964Z,9.90
2022-11-25T16:05:35.424Z,9.80
2022-11-25T16:08:18.609Z,9.80
2022-11-25T16:10:45.450Z,9.70
2022-11-25T16:13:25.632Z,9.60
2022-11-25T16:16:08.029Z,9.60
2022-11-25T16:19:02.621Z,9.60
2022-11-25T16:21:35.634Z,9.40
2022-11-25T16:24:05.472Z,9.40
2022-11-25T16:26:40.673Z,9.30
2022-11-25T16:29:27.436Z,9.20
2022-11-25T16:31:54.421Z,9.10
2022-11-25T16:34:24.151Z,9.00
2022-11-25T16:36:51.086Z,8.90
2022-11-25T16:39:17.996Z,8.90
2022-11-25T16:41:56.015Z,8.80
2022-11-25T16:44:26.225Z,8.70
2022-11-25T16:46:54.100Z,8.60
2022-11-25T16:49:22.684Z,8.60
2022-11-25T16:51:50.939Z,8.50
2022-11-25T16:54:22.963Z,8.50
2022-11-25T16:56:54.900Z,8.40
2022-11-25T16:59:35.896Z,8.40
2022-11-25T17:02:03.430Z,8.30
2022-11-25T17:04:30.697Z,8.20
2022-11-25T17:07:30.999Z,8.20
2022-11-25T17:09:45.426Z,8.10
2022-11-25T17:12:26.418Z,8.10
2022-11-25T17:14:53.524Z,8.00
2022-11-25T17:17:25.286Z,7.90
2022-11-25T17:19:53.406Z,7.80
2022-11-25T17:22:24.559Z,7.80
2022-11-25T17:24:51.835Z,7.80
2022-11-25T17:27:30.370Z,7.80
2022-11-25T17:30:00.925Z,7.90
2022-11-25T17:32:28.145Z,7.80
2022-11-25T17:34:55.143Z,7.80
2022-11-25T17:37:24.691Z,7.80
2022-11-25T17:39:53.548Z,7.80
2022-11-25T17:42:33.101Z,7.80
2022-11-25T17:45:00.912Z,7.70
2022-11-25T17:47:27.968Z,7.70
2022-11-25T17:49:55.240Z,7.60
2022-11-25T17:52:22.335Z,7.50
2022-11-25T17:54:49.299Z,7.50
2022-11-25T17:57:21.753Z,7.40
2022-11-25T17:59:49.158Z,7.30
2022-11-25T18:02:19.460Z,7.30
2022-11-25T18:04:46.583Z,7.30
2022-11-25T18:07:13.724Z,7.10
2022-11-25T18:09:41.010Z,7.10
2022-11-25T18:12:15.138Z,7.00
2022-11-25T18:14:43.011Z,6.90
2022-11-25T18:17:16.761Z,6.90
2022-11-25T18:19:44.118Z,6.80
2022-11-25T18:22:17.923Z,6.70
2022-11-25T18:24:45.286Z,6.70
2022-11-25T18:27:27.436Z,6.60
2022-11-25T18:29:55.826Z,6.50
2022-11-25T18:32:24.003Z,6.50
2022-11-25T18:34:51.934Z,6.50
2022-11-25T18:37:18.998Z,6.60
2022-11-25T18:39:46.620Z,6.60
2022-11-25T18:42:40.698Z,6.60
2022-11-25T18:45:19.903Z,6.60
2022-11-25T18:47:47.490Z,6.60
2022-11-25T18:50:20.609Z,6.50
2022-11-25T18:52:48.519Z,6.50
2022-11-25T18:55:18.784Z,6.50
2022-11-25T18:57:49.478Z,6.60
2022-11-25T19:00:33.162Z,6.60
2022-11-25T19:03:00.629Z,6.60
2022-11-25T19:05:33.484Z,6.60
2022-11-25T19:08:00.931Z,6.60
2022-11-25T19:10:32.058Z,6.60
2022-11-25T19:13:03.963Z,6.60
2022-11-25T19:15:31.170Z,6.60
2022-11-25T19:18:01.212Z,6.60
2022-11-25T19:20:30.219Z,6.50
2022-11-25T19:23:00.896Z,6.50
2022-11-25T19:25:28.517Z,6.50
2022-11-25T19:27:59.482Z,6.40
2022-11-25T19:30:31.202Z,6.30
2022-11-25T19:33:00.014Z,6.30
2022-11-25T19:35:34.086Z,6.20
2022-11-25T19:38:01.199Z,6.10
2022-11-25T19:40:34.710Z,6.00
2022-11-25T19:43:04.757Z,5.90
2022-11-25T19:45:32.392Z,5.90
2022-11-25T19:48:06.022Z,5.90
2022-11-25T19:50:35.559Z,6.00
2022-11-25T19:53:02.509Z,6.20
2022-11-25T19:55:29.981Z,6.30
2022-11-25T19:57:57.653Z,6.40
2022-11-25T20:00:25.584Z,6.50
2022-11-25T20:02:54.885Z,6.60
2022-11-25T20:05:33.407Z,6.70
2022-11-25T20:08:01.179Z,6.70
2022-11-25T20:10:31.903Z,6.60
2022-11-25T20:12:59.881Z,6.60
2022-11-25T20:15:26.976Z,6.50
2022-11-25T20:17:59.004Z,6.60
2022-11-25T20:20:33.295Z,6.50
2022-11-25T20:23:05.780Z,6.50
2022-11-25T20:25:43.221Z,6.50
2022-11-25T20:28:30.052Z,6.50
2022-11-25T20:30:59.265Z,6.50
2022-11-25T20:33:27.481Z,6.50
2022-11-25T20:36:05.071Z,6.60
2022-11-25T20:38:34.304Z,6.60
2022-11-25T20:41:01.947Z,6.70
2022-11-25T20:43:36.843Z,6.70
2022-11-25T20:46:04.231Z,6.70
2022-11-25T20:48:31.804Z,6.70
2022-11-25T20:51:03.473Z,6.60
2022-11-25T20:53:32.419Z,6.60
2022-11-25T20:56:00.224Z,6.60
2022-11-25T20:58:30.575Z,6.60
2022-11-25T21:00:58.764Z,6.60
2022-11-25T21:03:26.750Z,6.70
2022-11-25T21:05:55.456Z,6.60
2022-11-25T21:08:27.500Z,6.60
2022-11-25T21:10:57.701Z,6.60
2022-11-25T21:13:30.332Z,6.50
2022-11-25T21:15:57.721Z,6.50
2022-11-25T21:18:25.456Z,6.50
2022-11-25T21:20:54.645Z,6.50
2022-11-25T21:23:33.535Z,6.50
2022-11-25T21:26:10.424Z,6.40
2022-11-25T21:28:42.180Z,6.40
2022-11-25T21:31:21.385Z,6.40
2022-11-25T21:33:49.676Z,6.40
2022-11-25T21:36:24.284Z,6.40
2022-11-25T21:39:00.394Z,6.40
2022-11-25T21:41:27.392Z,6.30
2022-11-25T21:43:54.354Z,6.30
2022-11-25T21:46:26.603Z,6.30
2022-11-25T21:48:53.623Z,6.30
2022-11-25T21:51:24.194Z,6.20
2022-11-25T21:53:52.336Z,6.20
2022-11-25T21:56:33.952Z,6.10
2022-11-25T21:59:04.182Z,6.10
2022-11-25T22:01:31.212Z,6.00
2022-11-25T22:03:58.618Z,5.90
2022-11-25T22:06:28.566Z,5.90
2022-11-25T22:08:59.736Z,5.90
2022-11-25T22:11:37.429Z,5.90
2022-11-25T22:14:28.818Z,6.00
2022-11-25T22:16:57.069Z,6.10
2022-11-25T22:19:26.689Z,6.20
2022-11-25T22:21:54.842Z,6.20
2022-11-25T22:24:22.514Z,6.20
2022-11-25T22:26:56.156Z,6.20
2022-11-25T22:29:30.912Z,6.20
2022-11-25T22:31:57.908Z,6.20
2022-11-25T22:34:25.709Z,6.10
2022-11-25T22:36:52.800Z,6.10
2022-11-25T22:39:25.960Z,6.10
2022-11-25T22:41:56.589Z,6.10
2022-11-25T22:44:42.922Z,6.10
2022-11-25T22:47:28.974Z,6.10
2022-11-25T22:49:56.363Z,6.00
2022-11-25T22:52:28.419Z,6.10
2022-11-25T22:54:58.546Z,6.10
2022-11-25T22:57:25.465Z,6.10
2022-11-25T22:59:52.402Z,6.10
2022-11-25T23:02:33.130Z,6.10
2022-11-25T23:05:00.309Z,6.10
2022-11-25T23:07:27.559Z,6.00
2022-11-25T23:09:56.150Z,5.90
2022-11-25T23:12:23.038Z,5.90
2022-11-25T23:14:50.181Z,5.80
2022-11-25T23:17:22.639Z,5.80
2022-11-25T23:19:51.630Z,5.90
2022-11-25T23:22:19.657Z,5.90
2022-11-25T23:24:48.637Z,5.90
2022-11-25T23:27:16.579Z,5.90
2022-11-25T23:29:44.931Z,5.90
2022-11-25T23:32:19.283Z,5.90
2022-11-25T23:34:49.381Z,5.80
2022-11-25T23:37:16.393Z,5.80
2022-11-25T23:39:45.240Z,5.70
2022-11-25T23:42:18.006Z,5.50
2022-11-25T23:44:45.514Z,5.40
2022-11-25T23:47:18.900Z,5.20
2022-11-25T23:49:49.769Z,5.10
2022-11-25T23:52:28.035Z,5.10
2022-11-25T23:54:55.705Z,5.00
2022-11-25T23:57:29.583Z,4.90
2022-11-25T23:59:56.643Z,4.90
